sensor_id;sensor_type;location;lat;lon;timestamp;temperature;humidity
35425;DHT22;21537;48.226;16.400;2022-08-25T00:01:29;22.30;99.90
35425;DHT22;21537;48.226;16.400;2022-08-25T00:03:57;22.30;99.90
35425;DHT22;21537;48.226;16.400;2022-08-25T00:06:23;22.30;99.90
35425;DHT22;21537;48.226;16.400;2022-08-25T00:08:49;22.30;99.90
35425;DHT22;21537;48.226;16.400;2022-08-25T00:11:18;22.30;99.90
35425;DHT22;21537;48.226;16.400;2022-08-25T00:13:47;22.20;99.90
35425;DHT22;21537;48.226;16.400;2022-08-25T00:16:15;22.20;99.90
35425;DHT22;21537;48.226;16.400;2022-08-25T00:18:43;22.20;99.90
35425;DHT22;21537;48.226;16.400;2022-08-25T00:21:14;22.20;99.90
35425;DHT22;21537;48.226;16.400;2022-08-25T00:23:40;22.20;99.90
35425;DHT22;21537;48.226;16.400;2022-08-25T00:26:08;22.10;99.90
35425;DHT22;21537;48.226;16.400;2022-08-25T00:28:33;22.20;99.90
35425;DHT22;21537;48.226;16.400;2022-08-25T00:31:00;22.10;99.90
35425;DHT22;21537;48.226;16.400;2022-08-25T00:33:27;22.10;99.90
35425;DHT22;21537;48.226;16.400;2022-08-25T00:35:56;22.10;99.90
35425;DHT22;21537;48.226;16.400;2022-08-25T00:38:22;22.10;99.90
35425;DHT22;21537;48.226;16.400;2022-08-25T00:40:49;22.10;99.90
35425;DHT22;21537;48.226;16.400;2022-08-25T00:46:03;22.10;99.90
35425;DHT22;21537;48.226;16.400;2022-08-25T00:48:28;22.10;99.90
35425;DHT22;21537;48.226;16.400;2022-08-25T00:50:54;22.10;99.90
35425;DHT22;21537;48.226;16.400;2022-08-25T00:55:47;22.00;99.90
35425;DHT22;21537;48.226;16.400;2022-08-25T00:58:20;22.00;99.90
35425;DHT22;21537;48.226;16.400;2022-08-25T01:00:49;22.00;99.90
35425;DHT22;21537;48.226;16.400;2022-08-25T01:03:18;22.00;99.90
35425;DHT22;21537;48.226;16.400;2022-08-25T01:05:45;22.10;99.90
35425;DHT22;21537;48.226;16.400;2022-08-25T01:08:12;22.10;99.90
35425;DHT22;21537;48.226;16.400;2022-08-25T01:10:41;22.10;99.90
35425;DHT22;21537;48.226;16.400;2022-08-25T01:13:34;22.10;99.90
35425;DHT22;21537;48.226;16.400;2022-08-25T01:16:02;22.10;99.90
35425;DHT22;21537;48.226;16.400;2022-08-25T01:18:30;22.10;99.90
35425;DHT22;21537;48.226;16.400;2022-08-25T01:21:06;22.00;99.90
35425;DHT22;21537;48.226;16.400;2022-08-25T01:23:32;22.00;99.90
35425;DHT22;21537;48.226;16.400;2022-08-25T01:26:13;22.00;99.90
35425;DHT22;21537;48.226;16.400;2022-08-25T01:28:41;21.90;99.90
35425;DHT22;21537;48.226;16.400;2022-08-25T01:31:28;21.90;99.90
35425;DHT22;21537;48.226;16.400;2022-08-25T01:33:55;21.90;99.90
35425;DHT22;21537;48.226;16.400;2022-08-25T01:36:22;21.90;99.90
35425;DHT22;21537;48.226;16.400;2022-08-25T01:38:48;21.90;99.90
35425;DHT22;21537;48.226;16.400;2022-08-25T01:41:20;21.90;99.90
35425;DHT22;21537;48.226;16.400;2022-08-25T01:43:50;21.90;99.90
35425;DHT22;21537;48.226;16.400;2022-08-25T01:46:15;21.90;99.90
35425;DHT22;21537;48.226;16.400;2022-08-25T01:48:41;21.90;99.90
35425;DHT22;21537;48.226;16.400;2022-08-25T01:51:07;21.80;99.90
35425;DHT22;21537;48.226;16.400;2022-08-25T01:53:33;21.80;99.90
35425;DHT22;21537;48.226;16.400;2022-08-25T01:55:59;21.80;99.90
35425;DHT22;21537;48.226;16.400;2022-08-25T01:58:33;21.80;99.90
35425;DHT22;21537;48.226;16.400;2022-08-25T02:01:01;21.80;99.90
35425;DHT22;21537;48.226;16.400;2022-08-25T02:03:28;21.80;99.90
35425;DHT22;21537;48.226;16.400;2022-08-25T02:05:55;21.80;99.90
35425;DHT22;21537;48.226;16.400;2022-08-25T02:08:21;21.70;99.90
35425;DHT22;21537;48.226;16.400;2022-08-25T02:10:48;21.70;99.90
35425;DHT22;21537;48.226;16.400;2022-08-25T02:13:15;21.70;99.90
35425;DHT22;21537;48.226;16.400;2022-08-25T02:15:50;21.70;99.90
35425;DHT22;21537;48.226;16.400;2022-08-25T02:18:17;21.60;99.90
35425;DHT22;21537;48.226;16.400;2022-08-25T02:20:43;21.60;99.90
35425;DHT22;21537;48.226;16.400;2022-08-25T02:23:09;21.60;99.90
35425;DHT22;21537;48.226;16.400;2022-08-25T02:25:37;21.60;99.90
35425;DHT22;21537;48.226;16.400;2022-08-25T02:28:03;21.60;99.90
35425;DHT22;21537;48.226;16.400;2022-08-25T02:30:29;21.60;99.90
35425;DHT22;21537;48.226;16.400;2022-08-25T02:32:55;21.60;99.90
35425;DHT22;21537;48.226;16.400;2022-08-25T02:35:22;21.60;99.90
35425;DHT22;21537;48.226;16.400;2022-08-25T02:37:50;21.60;99.90
35425;DHT22;21537;48.226;16.400;2022-08-25T02:40:17;21.50;99.90
35425;DHT22;21537;48.226;16.400;2022-08-25T02:42:43;21.50;99.90
35425;DHT22;21537;48.226;16.400;2022-08-25T02:45:09;21.60;99.90
35425;DHT22;21537;48.226;16.400;2022-08-25T02:47:35;21.60;99.90
35425;DHT22;21537;48.226;16.400;2022-08-25T02:50:03;21.60;99.90
35425;DHT22;21537;48.226;16.400;2022-08-25T02:52:30;21.70;99.90
35425;DHT22;21537;48.226;16.400;2022-08-25T02:54:56;21.70;99.90
35425;DHT22;21537;48.226;16.400;2022-08-25T02:57:21;21.70;99.90
35425;DHT22;21537;48.226;16.400;2022-08-25T02:59:47;21.70;99.90
35425;DHT22;21537;48.226;16.400;2022-08-25T03:02:14;21.70;99.90
35425;DHT22;21537;48.226;16.400;2022-08-25T03:04:41;21.70;99.90
35425;DHT22;21537;48.226;16.400;2022-08-25T03:07:08;21.70;99.90
35425;DHT22;21537;48.226;16.400;2022-08-25T03:09:35;21.70;99.90
35425;DHT22;21537;48.226;16.400;2022-08-25T03:12:00;21.80;99.90
35425;DHT22;21537;48.226;16.400;2022-08-25T03:14:26;21.80;99.90
35425;DHT22;21537;48.226;16.400;2022-08-25T03:16:52;21.70;99.90
35425;DHT22;21537;48.226;16.400;2022-08-25T03:19:18;21.80;99.90
35425;DHT22;21537;48.226;16.400;2022-08-25T03:21:44;21.70;99.90
35425;DHT22;21537;48.226;16.400;2022-08-25T03:24:10;21.70;99.90
35425;DHT22;21537;48.226;16.400;2022-08-25T03:26:38;21.70;99.90
35425;DHT22;21537;48.226;16.400;2022-08-25T03:29:25;21.70;99.90
35425;DHT22;21537;48.226;16.400;2022-08-25T03:31:52;21.60;99.90
35425;DHT22;21537;48.226;16.400;2022-08-25T03:34:20;21.70;99.90
35425;DHT22;21537;48.226;16.400;2022-08-25T03:36:47;21.70;99.90
35425;DHT22;21537;48.226;16.400;2022-08-25T03:39:14;21.70;99.90
35425;DHT22;21537;48.226;16.400;2022-08-25T03:41:40;21.70;99.90
35425;DHT22;21537;48.226;16.400;2022-08-25T03:44:07;21.80;99.90
35425;DHT22;21537;48.226;16.400;2022-08-25T03:46:40;21.80;99.90
35425;DHT22;21537;48.226;16.400;2022-08-25T03:49:09;21.80;99.90
35425;DHT22;21537;48.226;16.400;2022-08-25T03:51:40;21.80;99.90
35425;DHT22;21537;48.226;16.400;2022-08-25T03:54:08;21.80;99.90
35425;DHT22;21537;48.226;16.400;2022-08-25T03:56:35;21.70;99.90
35425;DHT22;21537;48.226;16.400;2022-08-25T03:59:01;21.60;99.90
35425;DHT22;21537;48.226;16.400;2022-08-25T04:01:28;21.60;99.90
35425;DHT22;21537;48.226;16.400;2022-08-25T04:03:54;21.50;99.90
35425;DHT22;21537;48.226;16.400;2022-08-25T04:06:20;21.50;99.90
35425;DHT22;21537;48.226;16.400;2022-08-25T04:08:46;21.40;99.90
35425;DHT22;21537;48.226;16.400;2022-08-25T04:11:15;21.40;99.90
35425;DHT22;21537;48.226;16.400;2022-08-25T04:13:42;21.30;99.90
35425;DHT22;21537;48.226;16.400;2022-08-25T04:16:16;21.30;99.90
35425;DHT22;21537;48.226;16.400;2022-08-25T04:18:43;21.30;99.90
35425;DHT22;21537;48.226;16.400;2022-08-25T04:21:10;21.30;99.90
35425;DHT22;21537;48.226;16.400;2022-08-25T04:23:38;21.30;99.90
35425;DHT22;21537;48.226;16.400;2022-08-25T04:26:16;21.30;99.90
35425;DHT22;21537;48.226;16.400;2022-08-25T04:28:43;21.30;99.90
35425;DHT22;21537;48.226;16.400;2022-08-25T04:31:10;21.30;99.90
35425;DHT22;21537;48.226;16.400;2022-08-25T04:33:37;21.40;99.90
35425;DHT22;21537;48.226;16.400;2022-08-25T04:36:08;21.40;99.90
35425;DHT22;21537;48.226;16.400;2022-08-25T04:38:37;21.40;99.90
35425;DHT22;21537;48.226;16.400;2022-08-25T04:41:04;21.50;99.90
35425;DHT22;21537;48.226;16.400;2022-08-25T04:43:32;21.60;99.90
35425;DHT22;21537;48.226;16.400;2022-08-25T04:45:58;21.60;99.90
35425;DHT22;21537;48.226;16.400;2022-08-25T04:48:25;21.60;99.90
35425;DHT22;21537;48.226;16.400;2022-08-25T04:50:51;21.70;99.90
35425;DHT22;21537;48.226;16.400;2022-08-25T04:53:17;21.80;99.90
35425;DHT22;21537;48.226;16.400;2022-08-25T04:55:45;21.80;99.90
35425;DHT22;21537;48.226;16.400;2022-08-25T04:58:13;21.80;99.90
35425;DHT22;21537;48.226;16.400;2022-08-25T05:00:40;21.80;99.90
35425;DHT22;21537;48.226;16.400;2022-08-25T05:03:07;21.80;99.90
35425;DHT22;21537;48.226;16.400;2022-08-25T05:05:36;21.90;99.90
35425;DHT22;21537;48.226;16.400;2022-08-25T05:08:03;21.90;99.90
35425;DHT22;21537;48.226;16.400;2022-08-25T05:10:29;21.90;99.90
35425;DHT22;21537;48.226;16.400;2022-08-25T05:12:55;21.90;99.90
35425;DHT22;21537;48.226;16.400;2022-08-25T05:15:21;22.10;99.90
35425;DHT22;21537;48.226;16.400;2022-08-25T05:18:25;22.10;99.90
35425;DHT22;21537;48.226;16.400;2022-08-25T05:20:52;22.20;99.90
35425;DHT22;21537;48.226;16.400;2022-08-25T05:23:22;22.30;99.90
35425;DHT22;21537;48.226;16.400;2022-08-25T05:25:49;22.40;99.90
35425;DHT22;21537;48.226;16.400;2022-08-25T05:28:16;22.40;99.90
35425;DHT22;21537;48.226;16.400;2022-08-25T05:30:43;22.60;99.90
35425;DHT22;21537;48.226;16.400;2022-08-25T05:33:10;22.70;99.90
35425;DHT22;21537;48.226;16.400;2022-08-25T05:35:37;22.80;99.90
35425;DHT22;21537;48.226;16.400;2022-08-25T05:38:04;23.00;99.90
35425;DHT22;21537;48.226;16.400;2022-08-25T05:40:30;23.10;99.90
35425;DHT22;21537;48.226;16.400;2022-08-25T05:42:57;23.30;99.90
35425;DHT22;21537;48.226;16.400;2022-08-25T05:45:22;23.30;99.90
35425;DHT22;21537;48.226;16.400;2022-08-25T05:47:49;23.30;99.90
35425;DHT22;21537;48.226;16.400;2022-08-25T05:50:16;23.30;99.90
35425;DHT22;21537;48.226;16.400;2022-08-25T05:52:42;23.20;99.90
35425;DHT22;21537;48.226;16.400;2022-08-25T05:55:08;23.20;99.90
35425;DHT22;21537;48.226;16.400;2022-08-25T05:57:34;23.10;99.90
35425;DHT22;21537;48.226;16.400;2022-08-25T06:00:01;23.00;99.90
35425;DHT22;21537;48.226;16.400;2022-08-25T06:02:26;23.00;99.90
35425;DHT22;21537;48.226;16.400;2022-08-25T06:05:13;22.90;99.90
35425;DHT22;21537;48.226;16.400;2022-08-25T06:07:40;22.90;99.90
35425;DHT22;21537;48.226;16.400;2022-08-25T06:10:08;22.90;99.90
35425;DHT22;21537;48.226;16.400;2022-08-25T06:12:40;22.90;99.90
35425;DHT22;21537;48.226;16.400;2022-08-25T06:15:06;22.90;99.90
35425;DHT22;21537;48.226;16.400;2022-08-25T06:17:32;23.00;99.90
35425;DHT22;21537;48.226;16.400;2022-08-25T06:20:07;23.10;99.90
35425;DHT22;21537;48.226;16.400;2022-08-25T06:22:34;23.10;99.90
35425;DHT22;21537;48.226;16.400;2022-08-25T06:25:00;23.10;99.90
35425;DHT22;21537;48.226;16.400;2022-08-25T06:27:26;23.10;99.90
35425;DHT22;21537;48.226;16.400;2022-08-25T06:29:52;23.10;99.90
35425;DHT22;21537;48.226;16.400;2022-08-25T06:32:18;23.10;99.90
35425;DHT22;21537;48.226;16.400;2022-08-25T06:34:44;23.10;99.90
35425;DHT22;21537;48.226;16.400;2022-08-25T06:37:09;23.20;99.90
35425;DHT22;21537;48.226;16.400;2022-08-25T06:39:35;23.30;99.90
35425;DHT22;21537;48.226;16.400;2022-08-25T06:42:01;23.40;99.90
35425;DHT22;21537;48.226;16.400;2022-08-25T06:44:27;23.40;99.90
35425;DHT22;21537;48.226;16.400;2022-08-25T06:46:53;23.50;99.90
35425;DHT22;21537;48.226;16.400;2022-08-25T06:49:20;23.40;99.90
35425;DHT22;21537;48.226;16.400;2022-08-25T06:51:46;23.40;99.90
35425;DHT22;21537;48.226;16.400;2022-08-25T06:54:12;23.50;99.90
35425;DHT22;21537;48.226;16.400;2022-08-25T06:56:41;23.50;99.90
35425;DHT22;21537;48.226;16.400;2022-08-25T06:59:08;23.60;99.90
35425;DHT22;21537;48.226;16.400;2022-08-25T07:01:34;23.60;99.90
35425;DHT22;21537;48.226;16.400;2022-08-25T07:04:03;23.70;99.90
35425;DHT22;21537;48.226;16.400;2022-08-25T07:06:31;23.70;99.90
35425;DHT22;21537;48.226;16.400;2022-08-25T07:09:01;23.80;99.90
35425;DHT22;21537;48.226;16.400;2022-08-25T07:11:28;23.80;99.90
35425;DHT22;21537;48.226;16.400;2022-08-25T07:13:54;24.00;99.90
35425;DHT22;21537;48.226;16.400;2022-08-25T07:16:20;24.10;99.90
35425;DHT22;21537;48.226;16.400;2022-08-25T07:18:47;24.10;99.90
35425;DHT22;21537;48.226;16.400;2022-08-25T07:21:13;24.10;99.90
35425;DHT22;21537;48.226;16.400;2022-08-25T07:23:40;24.20;99.90
35425;DHT22;21537;48.226;16.400;2022-08-25T07:26:17;24.20;99.90
35425;DHT22;21537;48.226;16.400;2022-08-25T07:28:43;24.20;99.90
35425;DHT22;21537;48.226;16.400;2022-08-25T07:31:10;24.30;99.90
35425;DHT22;21537;48.226;16.400;2022-08-25T07:33:36;24.70;99.90
35425;DHT22;21537;48.226;16.400;2022-08-25T07:36:03;25.00;99.90
35425;DHT22;21537;48.226;16.400;2022-08-25T07:38:29;25.20;99.90
35425;DHT22;21537;48.226;16.400;2022-08-25T07:41:02;25.50;99.90
35425;DHT22;21537;48.226;16.400;2022-08-25T07:43:28;25.70;99.90
35425;DHT22;21537;48.226;16.400;2022-08-25T07:45:54;25.80;99.90
35425;DHT22;21537;48.226;16.400;2022-08-25T07:48:20;25.70;99.90
35425;DHT22;21537;48.226;16.400;2022-08-25T07:50:47;25.50;99.90
35425;DHT22;21537;48.226;16.400;2022-08-25T07:53:14;25.40;99.90
35425;DHT22;21537;48.226;16.400;2022-08-25T07:55:41;25.20;99.90
35425;DHT22;21537;48.226;16.400;2022-08-25T07:58:08;25.20;99.90
35425;DHT22;21537;48.226;16.400;2022-08-25T08:00:35;25.30;99.90
35425;DHT22;21537;48.226;16.400;2022-08-25T08:03:03;25.50;99.90
35425;DHT22;21537;48.226;16.400;2022-08-25T08:05:30;25.90;99.90
35425;DHT22;21537;48.226;16.400;2022-08-25T08:07:56;26.20;99.90
35425;DHT22;21537;48.226;16.400;2022-08-25T08:10:22;26.40;99.90
35425;DHT22;21537;48.226;16.400;2022-08-25T08:12:50;26.50;99.90
35425;DHT22;21537;48.226;16.400;2022-08-25T08:15:17;26.30;99.90
35425;DHT22;21537;48.226;16.400;2022-08-25T08:17:44;25.90;99.90
35425;DHT22;21537;48.226;16.400;2022-08-25T08:20:11;25.60;99.90
35425;DHT22;21537;48.226;16.400;2022-08-25T08:22:40;25.40;99.90
35425;DHT22;21537;48.226;16.400;2022-08-25T08:25:08;25.50;99.90
35425;DHT22;21537;48.226;16.400;2022-08-25T08:27:34;25.60;99.90
35425;DHT22;21537;48.226;16.400;2022-08-25T08:30:01;25.60;99.90
35425;DHT22;21537;48.226;16.400;2022-08-25T08:32:27;25.40;99.90
35425;DHT22;21537;48.226;16.400;2022-08-25T08:34:53;25.50;99.90
35425;DHT22;21537;48.226;16.400;2022-08-25T08:37:19;25.60;99.90
35425;DHT22;21537;48.226;16.400;2022-08-25T08:39:47;25.80;99.90
35425;DHT22;21537;48.226;16.400;2022-08-25T08:42:16;25.90;99.90
35425;DHT22;21537;48.226;16.400;2022-08-25T08:52:41;26.20;99.90
35425;DHT22;21537;48.226;16.400;2022-08-25T08:55:22;26.10;99.90
35425;DHT22;21537;48.226;16.400;2022-08-25T08:57:51;26.00;99.90
35425;DHT22;21537;48.226;16.400;2022-08-25T09:00:20;25.90;99.90
35425;DHT22;21537;48.226;16.400;2022-08-25T09:02:55;25.90;99.90
35425;DHT22;21537;48.226;16.400;2022-08-25T09:05:26;26.20;99.90
35425;DHT22;21537;48.226;16.400;2022-08-25T09:07:58;26.70;99.90
35425;DHT22;21537;48.226;16.400;2022-08-25T09:10:59;27.10;99.90
35425;DHT22;21537;48.226;16.400;2022-08-25T09:16:54;27.70;99.90
35425;DHT22;21537;48.226;16.400;2022-08-25T09:22:32;27.60;99.90
35425;DHT22;21537;48.226;16.400;2022-08-25T09:30:27;28.40;99.90
35425;DHT22;21537;48.226;16.400;2022-08-25T09:32:59;29.10;99.90
35425;DHT22;21537;48.226;16.400;2022-08-25T09:35:35;29.60;99.90
35425;DHT22;21537;48.226;16.400;2022-08-25T09:38:08;30.40;99.90
35425;DHT22;21537;48.226;16.400;2022-08-25T09:40:56;31.00;99.90
35425;DHT22;21537;48.226;16.400;2022-08-25T09:48:43;33.70;98.40
35425;DHT22;21537;48.226;16.400;2022-08-25T09:51:33;35.80;95.20
35425;DHT22;21537;48.226;16.400;2022-08-25T09:54:15;36.60;92.40
35425;DHT22;21537;48.226;16.400;2022-08-25T09:57:01;37.70;90.50
35425;DHT22;21537;48.226;16.400;2022-08-25T09:59:35;38.20;87.80
35425;DHT22;21537;48.226;16.400;2022-08-25T10:02:25;38.80;83.80
35425;DHT22;21537;48.226;16.400;2022-08-25T10:04:51;37.20;85.10
35425;DHT22;21537;48.226;16.400;2022-08-25T10:07:27;36.90;86.80
35425;DHT22;21537;48.226;16.400;2022-08-25T10:09:58;37.60;85.60
35425;DHT22;21537;48.226;16.400;2022-08-25T10:12:40;37.80;84.20
35425;DHT22;21537;48.226;16.400;2022-08-25T10:15:28;37.20;83.80
35425;DHT22;21537;48.226;16.400;2022-08-25T10:17:55;36.10;85.40
35425;DHT22;21537;48.226;16.400;2022-08-25T10:20:27;35.90;85.10
35425;DHT22;21537;48.226;16.400;2022-08-25T10:23:09;34.80;86.80
35425;DHT22;21537;48.226;16.400;2022-08-25T10:25:42;33.80;89.30
35425;DHT22;21537;48.226;16.400;2022-08-25T10:28:27;33.80;90.00
35425;DHT22;21537;48.226;16.400;2022-08-25T10:39:44;37.30;83.20
35425;DHT22;21537;48.226;16.400;2022-08-25T10:42:22;38.40;80.50
35425;DHT22;21537;48.226;16.400;2022-08-25T10:48:12;40.00;75.90
35425;DHT22;21537;48.226;16.400;2022-08-25T10:57:24;40.40;71.60
35425;DHT22;21537;48.226;16.400;2022-08-25T11:06:22;39.20;71.70
35425;DHT22;21537;48.226;16.400;2022-08-25T11:09:04;39.80;71.60
35425;DHT22;21537;48.226;16.400;2022-08-25T11:12:13;40.10;70.40
35425;DHT22;21537;48.226;16.400;2022-08-25T11:14:56;40.50;70.50
35425;DHT22;21537;48.226;16.400;2022-08-25T11:20:18;41.00;69.20
35425;DHT22;21537;48.226;16.400;2022-08-25T11:25:50;40.40;69.00
35425;DHT22;21537;48.226;16.400;2022-08-25T11:28:30;41.60;67.90
35425;DHT22;21537;48.226;16.400;2022-08-25T11:31:01;42.90;65.90
35425;DHT22;21537;48.226;16.400;2022-08-25T11:33:31;43.50;64.80
35425;DHT22;21537;48.226;16.400;2022-08-25T11:39:03;44.20;63.10
35425;DHT22;21537;48.226;16.400;2022-08-25T11:42:30;43.00;62.80
35425;DHT22;21537;48.226;16.400;2022-08-25T11:48:26;42.60;62.90
35425;DHT22;21537;48.226;16.400;2022-08-25T11:51:07;41.50;64.10
35425;DHT22;21537;48.226;16.400;2022-08-25T11:53:43;41.70;64.20
35425;DHT22;21537;48.226;16.400;2022-08-25T11:56:32;41.90;64.00
35425;DHT22;21537;48.226;16.400;2022-08-25T11:59:00;42.40;62.80
35425;DHT22;21537;48.226;16.400;2022-08-25T12:04:32;43.70;61.40
35425;DHT22;21537;48.226;16.400;2022-08-25T12:18:37;38.80;65.70
35425;DHT22;21537;48.226;16.400;2022-08-25T12:21:08;37.90;67.20
35425;DHT22;21537;48.226;16.400;2022-08-25T12:26:48;39.40;65.50
35425;DHT22;21537;48.226;16.400;2022-08-25T12:29:31;41.20;63.60
35425;DHT22;21537;48.226;16.400;2022-08-25T12:35:16;39.30;64.70
35425;DHT22;21537;48.226;16.400;2022-08-25T12:38:13;37.90;65.90
35425;DHT22;21537;48.226;16.400;2022-08-25T12:43:20;35.80;68.90
35425;DHT22;21537;48.226;16.400;2022-08-25T12:45:49;36.00;69.30
35425;DHT22;21537;48.226;16.400;2022-08-25T12:53:32;40.50;64.10
35425;DHT22;21537;48.226;16.400;2022-08-25T12:56:24;41.00;63.70
35425;DHT22;21537;48.226;16.400;2022-08-25T12:59:06;41.60;62.60
35425;DHT22;21537;48.226;16.400;2022-08-25T13:14:56;45.30;57.40
35425;DHT22;21537;48.226;16.400;2022-08-25T13:17:29;45.10;56.50
35425;DHT22;21537;48.226;16.400;2022-08-25T13:20:21;45.40;56.90
35425;DHT22;21537;48.226;16.400;2022-08-25T13:22:50;46.60;55.90
35425;DHT22;21537;48.226;16.400;2022-08-25T13:25:20;47.30;54.50
35425;DHT22;21537;48.226;16.400;2022-08-25T13:27:58;47.40;53.80
35425;DHT22;21537;48.226;16.400;2022-08-25T13:30:33;47.10;54.00
35425;DHT22;21537;48.226;16.400;2022-08-25T13:32:59;47.00;53.50
35425;DHT22;21537;48.226;16.400;2022-08-25T13:35:50;45.80;53.80
35425;DHT22;21537;48.226;16.400;2022-08-25T13:38:36;45.80;54.00
35425;DHT22;21537;48.226;16.400;2022-08-25T13:41:04;45.00;54.60
35425;DHT22;21537;48.226;16.400;2022-08-25T13:43:30;45.00;54.50
35425;DHT22;21537;48.226;16.400;2022-08-25T13:45:56;43.70;55.00
35425;DHT22;21537;48.226;16.400;2022-08-25T13:48:36;43.10;55.80
35425;DHT22;21537;48.226;16.400;2022-08-25T13:51:25;42.60;56.10
35425;DHT22;21537;48.226;16.400;2022-08-25T13:53:57;41.10;57.30
35425;DHT22;21537;48.226;16.400;2022-08-25T13:56:31;39.50;59.00
35425;DHT22;21537;48.226;16.400;2022-08-25T13:58:59;38.20;61.10
35425;DHT22;21537;48.226;16.400;2022-08-25T14:01:31;37.70;61.50
35425;DHT22;21537;48.226;16.400;2022-08-25T14:09:44;39.90;59.20
35425;DHT22;21537;48.226;16.400;2022-08-25T14:12:41;41.10;58.10
35425;DHT22;21537;48.226;16.400;2022-08-25T14:15:27;41.70;57.20
35425;DHT22;21537;48.226;16.400;2022-08-25T14:18:04;42.50;56.90
35425;DHT22;21537;48.226;16.400;2022-08-25T14:20:32;43.30;56.10
35425;DHT22;21537;48.226;16.400;2022-08-25T14:23:12;44.40;55.30
35425;DHT22;21537;48.226;16.400;2022-08-25T14:25:39;44.30;54.60
35425;DHT22;21537;48.226;16.400;2022-08-25T14:28:10;44.80;54.30
35425;DHT22;21537;48.226;16.400;2022-08-25T14:30:41;44.70;54.20
35425;DHT22;21537;48.226;16.400;2022-08-25T14:33:08;44.10;54.90
35425;DHT22;21537;48.226;16.400;2022-08-25T14:35:34;43.80;54.90
35425;DHT22;21537;48.226;16.400;2022-08-25T14:38:08;43.40;55.20
35425;DHT22;21537;48.226;16.400;2022-08-25T14:40:35;43.20;55.60
35425;DHT22;21537;48.226;16.400;2022-08-25T14:43:00;42.30;55.90
35425;DHT22;21537;48.226;16.400;2022-08-25T14:45:26;41.70;56.10
35425;DHT22;21537;48.226;16.400;2022-08-25T14:47:53;41.00;56.70
35425;DHT22;21537;48.226;16.400;2022-08-25T14:50:20;41.10;56.40
35425;DHT22;21537;48.226;16.400;2022-08-25T14:52:46;41.20;56.60
35425;DHT22;21537;48.226;16.400;2022-08-25T14:55:12;41.50;56.30
35425;DHT22;21537;48.226;16.400;2022-08-25T14:57:38;41.70;55.80
35425;DHT22;21537;48.226;16.400;2022-08-25T15:00:05;42.10;55.50
35425;DHT22;21537;48.226;16.400;2022-08-25T15:02:36;42.20;54.50
35425;DHT22;21537;48.226;16.400;2022-08-25T15:05:04;42.20;55.00
35425;DHT22;21537;48.226;16.400;2022-08-25T15:07:33;42.00;55.30
35425;DHT22;21537;48.226;16.400;2022-08-25T15:10:17;42.00;55.50
35425;DHT22;21537;48.226;16.400;2022-08-25T15:12:46;42.30;55.60
35425;DHT22;21537;48.226;16.400;2022-08-25T15:15:12;42.50;55.60
35425;DHT22;21537;48.226;16.400;2022-08-25T15:17:41;42.30;55.60
35425;DHT22;21537;48.226;16.400;2022-08-25T15:20:09;41.60;56.20
35425;DHT22;21537;48.226;16.400;2022-08-25T15:22:38;40.00;57.60
35425;DHT22;21537;48.226;16.400;2022-08-25T15:25:07;38.40;59.50
35425;DHT22;21537;48.226;16.400;2022-08-25T15:27:33;37.10;61.40
35425;DHT22;21537;48.226;16.400;2022-08-25T15:30:04;35.90;63.50
35425;DHT22;21537;48.226;16.400;2022-08-25T15:32:33;35.00;64.70
35425;DHT22;21537;48.226;16.400;2022-08-25T15:34:59;34.10;65.90
35425;DHT22;21537;48.226;16.400;2022-08-25T15:37:25;33.30;65.60
35425;DHT22;21537;48.226;16.400;2022-08-25T15:39:52;32.80;67.00
35425;DHT22;21537;48.226;16.400;2022-08-25T15:42:18;32.40;69.10
35425;DHT22;21537;48.226;16.400;2022-08-25T15:44:44;32.00;70.20
35425;DHT22;21537;48.226;16.400;2022-08-25T15:47:12;31.70;71.10
35425;DHT22;21537;48.226;16.400;2022-08-25T15:49:38;31.50;72.00
35425;DHT22;21537;48.226;16.400;2022-08-25T15:52:04;31.30;72.70
35425;DHT22;21537;48.226;16.400;2022-08-25T15:54:30;31.10;73.10
35425;DHT22;21537;48.226;16.400;2022-08-25T15:56:56;30.90;74.40
35425;DHT22;21537;48.226;16.400;2022-08-25T15:59:23;30.70;74.40
35425;DHT22;21537;48.226;16.400;2022-08-25T16:01:49;30.60;75.70
35425;DHT22;21537;48.226;16.400;2022-08-25T16:04:19;30.40;75.70
35425;DHT22;21537;48.226;16.400;2022-08-25T16:06:48;30.20;76.20
35425;DHT22;21537;48.226;16.400;2022-08-25T16:09:13;30.00;76.40
35425;DHT22;21537;48.226;16.400;2022-08-25T16:11:43;29.90;76.90
35425;DHT22;21537;48.226;16.400;2022-08-25T16:14:09;29.80;77.30
35425;DHT22;21537;48.226;16.400;2022-08-25T16:16:37;29.70;77.00
35425;DHT22;21537;48.226;16.400;2022-08-25T16:19:06;29.60;77.30
35425;DHT22;21537;48.226;16.400;2022-08-25T16:21:35;29.50;77.50
35425;DHT22;21537;48.226;16.400;2022-08-25T16:24:04;29.40;77.80
35425;DHT22;21537;48.226;16.400;2022-08-25T16:26:31;29.40;78.30
35425;DHT22;21537;48.226;16.400;2022-08-25T16:28:57;29.30;78.60
35425;DHT22;21537;48.226;16.400;2022-08-25T16:31:24;29.30;79.10
35425;DHT22;21537;48.226;16.400;2022-08-25T16:33:50;29.20;79.40
35425;DHT22;21537;48.226;16.400;2022-08-25T16:36:18;29.10;80.10
35425;DHT22;21537;48.226;16.400;2022-08-25T16:38:49;28.90;80.40
35425;DHT22;21537;48.226;16.400;2022-08-25T16:41:18;28.80;80.80
35425;DHT22;21537;48.226;16.400;2022-08-25T16:43:45;28.70;81.20
35425;DHT22;21537;48.226;16.400;2022-08-25T16:46:15;28.70;81.90
35425;DHT22;21537;48.226;16.400;2022-08-25T16:48:42;28.60;82.50
35425;DHT22;21537;48.226;16.400;2022-08-25T16:51:11;28.50;83.10
35425;DHT22;21537;48.226;16.400;2022-08-25T16:53:40;28.40;83.70
35425;DHT22;21537;48.226;16.400;2022-08-25T16:56:25;28.30;84.10
35425;DHT22;21537;48.226;16.400;2022-08-25T16:58:57;28.20;84.40
35425;DHT22;21537;48.226;16.400;2022-08-25T17:01:28;28.20;85.40
35425;DHT22;21537;48.226;16.400;2022-08-25T17:03:59;28.10;85.70
35425;DHT22;21537;48.226;16.400;2022-08-25T17:06:32;28.10;86.30
35425;DHT22;21537;48.226;16.400;2022-08-25T17:09:01;28.00;86.80
35425;DHT22;21537;48.226;16.400;2022-08-25T17:11:28;27.90;86.90
35425;DHT22;21537;48.226;16.400;2022-08-25T17:13:57;27.80;87.40
35425;DHT22;21537;48.226;16.400;2022-08-25T17:16:29;27.80;87.90
35425;DHT22;21537;48.226;16.400;2022-08-25T17:19:01;27.70;88.60
35425;DHT22;21537;48.226;16.400;2022-08-25T17:21:33;27.60;89.30
35425;DHT22;21537;48.226;16.400;2022-08-25T17:24:00;27.50;90.00
35425;DHT22;21537;48.226;16.400;2022-08-25T17:26:28;27.40;90.30
35425;DHT22;21537;48.226;16.400;2022-08-25T17:28:55;27.30;90.80